Wetterdaten: Woche 08.05.06 - 14.05.06 (KW19)
Datum Zeit Temperatur Luftfeuchte Luftdruck Niederschlag Wind Richtung Sonne Solar Taupunkt Windchill
08.05.2006 00:00 12.2 C 82 % 1014.8 hPa 0.0 l/m 0.9 km/h (0 Bft) O-SO 0.00 h 0 W/m 9.1 C 12.2 C
08.05.2006 01:00 11.7 C 72 % 1015.1 hPa 0.0 l/m 0.3 km/h (0 Bft) SO 0.00 h 0 W/m 6.8 C 11.7 C
08.05.2006 02:00 11.3 C 64 % 1014.9 hPa 0.0 l/m 0.0 km/h (0 Bft) O-SO 0.00 h 0 W/m 4.6 C 11.3 C
08.05.2006 03:00 9.9 C 73 % 1015.1 hPa 0.0 l/m 2.3 km/h (1 Bft) O-SO 0.00 h 0 W/m 5.2 C 9.8 C
08.05.2006 04:00 9.5 C 77 % 1015.2 hPa 0.0 l/m 1.2 km/h (1 Bft) O-SO 0.00 h 0 W/m 5.7 C 9.5 C
08.05.2006 05:00 9.6 C 77 % 1015.1 hPa 0.0 l/m 0.6 km/h (0 Bft) O-SO 0.00 h 0 W/m 5.8 C 9.6 C
08.05.2006 06:00 9.9 C 78 % 1015.1 hPa 0.0 l/m 0.0 km/h (0 Bft) N 0.00 h 19 W/m 6.3 C 9.9 C
08.05.2006 07:00 10.6 C 77 % 1015.0 hPa 0.0 l/m 0.0 km/h (0 Bft) N 0.00 h 49 W/m 6.8 C 10.6 C
08.05.2006 08:00 10.7 C 81 % 1015.8 hPa 1.0 l/m 0.0 km/h (0 Bft) N 0.00 h 56 W/m 7.6 C 10.7 C
08.05.2006 09:00 11.2 C 83 % 1016.0 hPa 0.0 l/m 0.0 km/h (0 Bft) N 0.00 h 166 W/m 8.4 C 11.2 C
08.05.2006 10:00 11.5 C 77 % 1015.9 hPa 0.0 l/m 0.0 km/h (0 Bft) N 0.00 h 113 W/m 7.7 C 11.5 C
08.05.2006 11:00 11.2 C 87 % 1015.2 hPa 2.3 l/m 0.0 km/h (0 Bft) N 0.00 h 158 W/m 9.1 C 11.2 C
08.05.2006 12:00 12.5 C 83 % 1014.7 hPa 0.0 l/m 0.4 km/h (0 Bft) W-NW 0.37 h 423 W/m 9.7 C 12.5 C
08.05.2006 13:00 13.6 C 79 % 1014.3 hPa 0.0 l/m 0.1 km/h (0 Bft) N 0.07 h 298 W/m 10.0 C 13.6 C
08.05.2006 14:00 13.8 C 82 % 1013.5 hPa 0.0 l/m 0.0 km/h (0 Bft) N 0.00 h 185 W/m 10.7 C 13.8 C
08.05.2006 15:00 14.3 C 79 % 1013.5 hPa 0.0 l/m 0.0 km/h (0 Bft) N 0.00 h 242 W/m 10.6 C 14.3 C
08.05.2006 16:00 15.0 C 76 % 1012.4 hPa 0.0 l/m 0.2 km/h (0 Bft) W 0.00 h 247 W/m 10.8 C 15.0 C
08.05.2006 17:00 14.9 C 78 % 1011.8 hPa 0.0 l/m 0.1 km/h (0 Bft) N 0.00 h 176 W/m 11.1 C 14.9 C
08.05.2006 18:00 15.2 C 76 % 1010.5 hPa 0.0 l/m 0.0 km/h (0 Bft) N 0.43 h 185 W/m 11.1 C 15.2 C
08.05.2006 19:00 14.8 C 79 % 1010.3 hPa 0.0 l/m 0.0 km/h (0 Bft) N 0.00 h 65 W/m 11.1 C 14.8 C
08.05.2006 20:00 14.1 C 83 % 1010.4 hPa 0.0 l/m 0.0 km/h (0 Bft) N 0.00 h 12 W/m 11.1 C 14.1 C
08.05.2006 21:00 13.5 C 86 % 1010.5 hPa 0.0 l/m 0.2 km/h (0 Bft) NW 0.00 h 0 W/m 11.3 C 13.5 C
08.05.2006 22:00 12.8 C 81 % 1011.3 hPa 0.0 l/m 17.2 km/h (3 Bft) NW 0.00 h 0 W/m 9.6 C 12.8 C
08.05.2006 23:00 10.9 C 84 % 1012.3 hPa 1.0 l/m 19.8 km/h (4 Bft) NW 0.00 h 0 W/m 8.3 C 10.9 C
09.05.2006 00:00 9.9 C 89 % 1013.3 hPa 0.6 l/m 20.0 km/h (4 Bft) NW 0.00 h 0 W/m 8.1 C 8.2 C
09.05.2006 01:00 8.2 C 88 % 1014.3 hPa 0.0 l/m 23.1 km/h (4 Bft) NW 0.00 h 0 W/m 6.3 C 4.9 C
09.05.2006 02:00 7.9 C 87 % 1014.3 hPa 0.0 l/m 13.3 km/h (3 Bft) W-NW 0.00 h 0 W/m 5.9 C 6.0 C
09.05.2006 03:00 7.4 C 87 % 1014.4 hPa 0.3 l/m 5.3 km/h (1 Bft) W-NW 0.00 h 0 W/m 5.5 C 6.7 C
09.05.2006 04:00 6.4 C 95 % 1015.3 hPa 1.6 l/m 2.3 km/h (1 Bft) W 0.00 h 0 W/m 5.6 C 6.2 C
09.05.2006 05:00 5.8 C 97 % 1015.7 hPa 1.3 l/m 2.8 km/h (1 Bft) W 0.00 h 0 W/m 5.3 C 5.4 C
09.05.2006 06:00 5.5 C 99 % 1016.0 hPa 1.0 l/m 0.8 km/h (0 Bft) N-NO 0.00 h 6 W/m 5.3 C 5.5 C
09.05.2006 07:00 5.3 C 99 % 1016.8 hPa 1.0 l/m 0.9 km/h (0 Bft) W-SW 0.00 h 15 W/m 5.2 C 5.3 C
09.05.2006 08:00 5.4 C 99 % 1016.8 hPa 1.3 l/m 0.5 km/h (0 Bft) SO 0.00 h 61 W/m 5.3 C 5.4 C
09.05.2006 09:00 6.1 C 97 % 1016.9 hPa 0.6 l/m 1.0 km/h (0 Bft) S 0.00 h 113 W/m 5.7 C 6.0 C
09.05.2006 10:00 7.0 C 97 % 1017.6 hPa 0.6 l/m 0.2 km/h (0 Bft) SO 0.00 h 113 W/m 6.5 C 7.0 C
09.05.2006 11:00 8.0 C 95 % 1017.1 hPa 1.0 l/m 0.0 km/h (0 Bft) W-NW 0.00 h 227 W/m 7.3 C 8.0 C
09.05.2006 12:00 9.1 C 91 % 1016.4 hPa 0.3 l/m 0.3 km/h (0 Bft) W-NW 0.00 h 247 W/m 7.6 C 9.1 C
09.05.2006 13:00 9.4 C 95 % 1016.3 hPa 0.0 l/m 0.2 km/h (0 Bft) W 0.00 h 197 W/m 8.6 C 9.4 C
09.05.2006 14:00 9.6 C 92 % 1017.1 hPa 0.0 l/m 4.8 km/h (1 Bft) W-NW 0.00 h 249 W/m 8.3 C 9.0 C
09.05.2006 15:00 9.8 C 85 % 1017.2 hPa 0.0 l/m 10.5 km/h (2 Bft) W-NW 0.00 h 163 W/m 7.4 C 8.4 C
09.05.2006 16:00 9.2 C 86 % 1017.3 hPa 0.0 l/m 17.6 km/h (3 Bft) W-NW 0.00 h 115 W/m 6.9 C 6.7 C
09.05.2006 17:00 9.2 C 84 % 1017.3 hPa 0.0 l/m 9.4 km/h (2 Bft) NW 0.00 h 74 W/m 6.6 C 8.0 C
09.05.2006 18:00 9.0 C 86 % 1017.3 hPa 0.0 l/m 1.8 km/h (1 Bft) W-NW 0.00 h 50 W/m 6.8 C 8.8 C
09.05.2006 19:00 8.8 C 87 % 1017.6 hPa 0.0 l/m 1.4 km/h (1 Bft) W-NW 0.00 h 28 W/m 6.7 C 8.6 C
09.05.2006 20:00 8.4 C 94 % 1018.4 hPa 0.0 l/m 0.1 km/h (0 Bft) N 0.00 h 7 W/m 7.4 C 8.4 C
09.05.2006 21:00 8.3 C 90 % 1018.4 hPa 0.0 l/m 0.8 km/h (0 Bft) W 0.00 h 0 W/m 6.7 C 8.2 C
09.05.2006 22:00 8.1 C 90 % 1019.1 hPa 0.0 l/m 0.1 km/h (0 Bft) N 0.00 h 0 W/m 6.6 C 8.1 C
09.05.2006 23:00 8.1 C 89 % 1019.0 hPa 0.0 l/m 0.1 km/h (0 Bft) N 0.00 h 0 W/m 6.3 C 8.1 C
10.05.2006 00:00 8.1 C 88 % 1018.5 hPa 0.0 l/m 0.1 km/h (0 Bft) W-NW 0.00 h 0 W/m 6.3 C 8.1 C
10.05.2006 01:00 8.0 C 90 % 1018.5 hPa 0.0 l/m 0.0 km/h (0 Bft) N 0.00 h 0 W/m 6.5 C 8.0 C
10.05.2006 02:00 7.8 C 92 % 1018.5 hPa 0.0 l/m 0.0 km/h (0 Bft) N 0.00 h 0 W/m 6.6 C 7.8 C
10.05.2006 03:00 7.7 C 90 % 1018.5 hPa 0.0 l/m 0.0 km/h (0 Bft) N 0.00 h 0 W/m 6.2 C 7.7 C
10.05.2006 04:00 7.0 C 94 % 1018.2 hPa 0.0 l/m 0.0 km/h (0 Bft) N 0.00 h 0 W/m 6.1 C 7.0 C
10.05.2006 05:00 5.9 C 98 % 1017.7 hPa 0.0 l/m 1.1 km/h (1 Bft) O-SO 0.00 h 0 W/m 5.7 C 5.9 C
10.05.2006 06:00 5.2 C 100 % 1017.8 hPa 0.0 l/m 0.0 km/h (0 Bft) N 0.03 h 26 W/m 5.2 C 5.2 C
10.05.2006 07:00 6.5 C 100 % 1017.6 hPa 0.0 l/m 0.0 km/h (0 Bft) N 0.00 h 69 W/m 6.5 C 6.5 C
10.05.2006 08:00 7.9 C 93 % 1017.5 hPa 0.0 l/m 0.1 km/h (0 Bft) N 0.00 h 147 W/m 6.8 C 7.9 C
10.05.2006 09:00 8.7 C 83 % 1017.3 hPa 0.0 l/m 0.1 km/h (0 Bft) N 0.03 h 185 W/m 6.1 C 8.7 C
10.05.2006 10:00 10.1 C 77 % 1017.2 hPa 0.0 l/m 1.2 km/h (1 Bft) SO 0.57 h 371 W/m 6.2 C 10.0 C
10.05.2006 11:00 10.9 C 71 % 1016.4 hPa 0.0 l/m 1.5 km/h (1 Bft) W-NW 0.00 h 265 W/m 5.9 C 10.9 C
10.05.2006 12:00 12.2 C 67 % 1015.8 hPa 0.0 l/m 1.0 km/h (0 Bft) NW 0.30 h 463 W/m 6.2 C 12.2 C
10.05.2006 13:00 14.2 C 58 % 1015.6 hPa 0.0 l/m 0.5 km/h (0 Bft) W-NW 0.83 h 632 W/m 5.9 C 14.2 C
10.05.2006 14:00 16.0 C 51 % 1014.6 hPa 0.0 l/m 1.5 km/h (1 Bft) O-SO 0.80 h 634 W/m 6.0 C 16.0 C
10.05.2006 15:00 16.0 C 52 % 1014.3 hPa 0.0 l/m 4.6 km/h (1 Bft) W-NW 0.33 h 396 W/m 6.1 C 16.0 C
10.05.2006 16:00 16.5 C 53 % 1014.2 hPa 0.0 l/m 13.4 km/h (3 Bft) W-NW 0.97 h 645 W/m 6.9 C 16.5 C
10.05.2006 17:00 16.8 C 52 % 1014.2 hPa 0.0 l/m 13.0 km/h (3 Bft) W-NW 1.00 h 510 W/m 7.0 C 16.8 C
10.05.2006 18:00 15.3 C 58 % 1014.4 hPa 0.0 l/m 10.7 km/h (2 Bft) NW 0.57 h 243 W/m 7.0 C 15.3 C
10.05.2006 19:00 13.8 C 66 % 1014.6 hPa 0.0 l/m 6.1 km/h (2 Bft) W-NW 0.33 h 95 W/m 7.6 C 13.8 C
10.05.2006 20:00 12.5 C 74 % 1014.8 hPa 0.0 l/m 2.9 km/h (1 Bft) NW 0.03 h 12 W/m 7.9 C 12.5 C
10.05.2006 21:00 10.9 C 84 % 1015.7 hPa 0.0 l/m 1.4 km/h (1 Bft) W-NW 0.00 h 0 W/m 8.3 C 10.9 C
10.05.2006 22:00 9.5 C 91 % 1016.3 hPa 0.0 l/m 0.6 km/h (0 Bft) O-SO 0.00 h 0 W/m 8.2 C 9.5 C
10.05.2006 23:00 8.8 C 94 % 1017.1 hPa 0.0 l/m 0.2 km/h (0 Bft) SO 0.00 h 0 W/m 7.9 C 8.7 C
11.05.2006 00:00 7.8 C 97 % 1016.5 hPa 0.0 l/m 0.1 km/h (0 Bft) O-SO 0.00 h 0 W/m 7.2 C 7.8 C
11.05.2006 01:00 7.2 C 98 % 1016.5 hPa 0.0 l/m 0.9 km/h (0 Bft) O-SO 0.00 h 0 W/m 7.0 C 7.1 C
11.05.2006 02:00 6.6 C 100 % 1016.6 hPa 0.0 l/m 0.0 km/h (0 Bft) N 0.00 h 0 W/m 6.6 C 6.6 C
11.05.2006 03:00 6.0 C 100 % 1016.7 hPa 0.0 l/m 0.1 km/h (0 Bft) O-SO 0.00 h 0 W/m 6.0 C 6.0 C
11.05.2006 04:00 5.7 C 100 % 1016.7 hPa 0.0 l/m 0.0 km/h (0 Bft) N 0.00 h 0 W/m 5.7 C 5.7 C
11.05.2006 05:00 6.5 C 100 % 1016.6 hPa 0.0 l/m 0.0 km/h (0 Bft) N 0.00 h 0 W/m 6.5 C 6.5 C
11.05.2006 06:00 7.0 C 100 % 1017.1 hPa 0.0 l/m 0.1 km/h (0 Bft) O-SO 0.00 h 14 W/m 7.0 C 7.0 C
11.05.2006 07:00 7.4 C 100 % 1017.5 hPa 0.0 l/m 0.0 km/h (0 Bft) N 0.00 h 59 W/m 7.4 C 7.4 C
11.05.2006 08:00 8.5 C 99 % 1017.6 hPa 0.0 l/m 0.0 km/h (0 Bft) N 0.00 h 158 W/m 8.3 C 8.5 C
11.05.2006 09:00 9.5 C 89 % 1018.2 hPa 0.0 l/m 0.1 km/h (0 Bft) N 0.68 h 383 W/m 7.8 C 9.5 C
11.05.2006 10:00 11.4 C 80 % 1017.8 hPa 0.0 l/m 0.4 km/h (0 Bft) NW 1.00 h 629 W/m 8.0 C 11.4 C
11.05.2006 11:00 14.2 C 69 % 1016.6 hPa 0.0 l/m 1.0 km/h (0 Bft) W-NW 1.00 h 728 W/m 8.6 C 14.2 C
11.05.2006 12:00 17.8 C 58 % 1016.1 hPa 0.0 l/m 5.1 km/h (1 Bft) O-SO 1.00 h 790 W/m 9.4 C 17.8 C
11.05.2006 13:00 20.5 C 46 % 1015.5 hPa 0.0 l/m 22.1 km/h (4 Bft) O-SO 1.00 h 810 W/m 8.5 C 20.5 C
11.05.2006 14:00 21.6 C 38 % 1014.6 hPa 0.0 l/m 21.6 km/h (4 Bft) O-SO 1.00 h 785 W/m 6.5 C 21.6 C
11.05.2006 15:00 22.3 C 32 % 1014.5 hPa 0.0 l/m 20.6 km/h (4 Bft) O-SO 1.00 h 723 W/m 4.6 C 22.3 C
11.05.2006 16:00 22.7 C 30 % 1014.3 hPa 0.0 l/m 14.8 km/h (3 Bft) O-SO 1.00 h 614 W/m 4.3 C 22.7 C
11.05.2006 17:00 22.5 C 27 % 1013.9 hPa 0.0 l/m 17.2 km/h (3 Bft) O-SO 1.00 h 481 W/m 2.3 C 22.5 C
11.05.2006 18:00 22.0 C 26 % 1014.4 hPa 0.0 l/m 8.1 km/h (2 Bft) O-SO 0.98 h 339 W/m 1.8 C 22.0 C
11.05.2006 19:00 20.8 C 31 % 1014.6 hPa 0.0 l/m 4.5 km/h (1 Bft) O-SO 1.00 h 180 W/m 2.8 C 20.8 C
11.05.2006 20:00 18.3 C 40 % 1015.0 hPa 0.0 l/m 0.3 km/h (0 Bft) O-SO 0.70 h 44 W/m 4.2 C 18.3 C
11.05.2006 21:00 14.6 C 58 % 1015.5 hPa 0.0 l/m 2.3 km/h (1 Bft) O-SO 0.00 h 0 W/m 6.3 C 14.6 C
11.05.2006 22:00 12.2 C 69 % 1016.7 hPa 0.0 l/m 0.1 km/h (0 Bft) N 0.00 h 0 W/m 6.8 C 12.2 C
11.05.2006 23:00 10.7 C 76 % 1017.1 hPa 0.0 l/m 0.3 km/h (0 Bft) O-SO 0.00 h 0 W/m 6.7 C 10.7 C
12.05.2006 00:00 9.4 C 84 % 1017.2 hPa 0.0 l/m 0.0 km/h (0 Bft) N 0.00 h 0 W/m 6.8 C 9.4 C
12.05.2006 01:00 8.5 C 87 % 1017.4 hPa 0.0 l/m 0.0 km/h (0 Bft) O-SO 0.00 h 0 W/m 6.5 C 8.5 C
12.05.2006 02:00 7.7 C 94 % 1017.5 hPa 0.0 l/m 0.7 km/h (0 Bft) O-SO 0.00 h 0 W/m 6.8 C 7.7 C
12.05.2006 03:00 7.0 C 96 % 1018.0 hPa 0.0 l/m 0.5 km/h (0 Bft) O-SO 0.00 h 0 W/m 6.4 C 7.0 C
12.05.2006 04:00 6.8 C 95 % 1018.7 hPa 0.0 l/m 1.9 km/h (1 Bft) O-SO 0.00 h 0 W/m 6.0 C 6.6 C
12.05.2006 05:00 6.1 C 97 % 1018.7 hPa 0.0 l/m 0.0 km/h (0 Bft) N 0.00 h 0 W/m 5.7 C 6.1 C
12.05.2006 06:00 6.0 C 98 % 1018.8 hPa 0.0 l/m 0.0 km/h (0 Bft) N 0.13 h 37 W/m 5.8 C 6.0 C
12.05.2006 07:00 7.2 C 96 % 1019.6 hPa 0.0 l/m 0.0 km/h (0 Bft) N 1.00 h 192 W/m 6.6 C 7.2 C
12.05.2006 08:00 9.8 C 85 % 1019.3 hPa 0.0 l/m 0.1 km/h (0 Bft) O-SO 1.00 h 324 W/m 7.4 C 9.8 C
12.05.2006 09:00 13.4 C 75 % 1018.8 hPa 0.0 l/m 2.7 km/h (1 Bft) O-SO 1.00 h 439 W/m 9.0 C 13.4 C
12.05.2006 10:00 16.3 C 64 % 1018.4 hPa 0.0 l/m 1.1 km/h (1 Bft) SO 1.00 h 604 W/m 9.6 C 16.3 C
12.05.2006 11:00 19.3 C 56 % 1018.0 hPa 0.0 l/m 3.5 km/h (1 Bft) SO 1.00 h 700 W/m 10.4 C 19.3 C
12.05.2006 12:00 20.9 C 51 % 1017.1 hPa 0.0 l/m 3.6 km/h (1 Bft) O-SO 1.00 h 686 W/m 10.2 C 20.9 C
12.05.2006 13:00 22.8 C 43 % 1016.4 hPa 0.0 l/m 1.5 km/h (1 Bft) O-SO 1.00 h 781 W/m 9.4 C 22.8 C
12.05.2006 14:00 23.1 C 38 % 1015.5 hPa 0.0 l/m 1.2 km/h (1 Bft) SO 0.80 h 520 W/m 7.9 C 23.1 C
12.05.2006 15:00 23.6 C 34 % 1015.4 hPa 0.0 l/m 1.6 km/h (1 Bft) NW 0.70 h 508 W/m 6.7 C 23.6 C
12.05.2006 16:00 24.0 C 30 % 1014.6 hPa 0.0 l/m 2.5 km/h (1 Bft) W-NW 0.47 h 415 W/m 4.9 C 24.0 C
12.05.2006 17:00 24.7 C 23 % 1014.2 hPa 0.0 l/m 6.2 km/h (2 Bft) W-NW 1.00 h 411 W/m 1.9 C 24.7 C
12.05.2006 18:00 22.9 C 33 % 1014.4 hPa 0.0 l/m 14.0 km/h (3 Bft) NW 0.10 h 168 W/m 5.7 C 22.9 C
12.05.2006 19:00 21.3 C 42 % 1015.2 hPa 0.0 l/m 18.1 km/h (3 Bft) NW 0.00 h 70 W/m 7.8 C 21.3 C
12.05.2006 20:00 19.7 C 47 % 1016.0 hPa 0.0 l/m 24.0 km/h (4 Bft) NW 0.00 h 18 W/m 8.0 C 19.7 C
12.05.2006 21:00 18.4 C 45 % 1017.1 hPa 0.0 l/m 18.7 km/h (3 Bft) NW 0.00 h 0 W/m 6.3 C 18.4 C
12.05.2006 22:00 17.7 C 48 % 1018.1 hPa 0.0 l/m 17.9 km/h (3 Bft) NW 0.00 h 0 W/m 6.7 C 17.7 C
12.05.2006 23:00 15.9 C 56 % 1019.5 hPa 0.0 l/m 28.7 km/h (4 Bft) NW 0.00 h 0 W/m 7.2 C 15.9 C
13.05.2006 00:00 14.1 C 70 % 1019.7 hPa 0.0 l/m 8.1 km/h (2 Bft) NW 0.00 h 0 W/m 8.7 C 14.1 C
13.05.2006 01:00 12.8 C 85 % 1019.9 hPa 0.0 l/m 0.1 km/h (0 Bft) N 0.00 h 0 W/m 10.4 C 12.8 C
13.05.2006 02:00 12.3 C 91 % 1020.0 hPa 0.6 l/m 0.0 km/h (0 Bft) N 0.00 h 0 W/m 10.8 C 12.3 C
13.05.2006 03:00 12.1 C 95 % 1020.0 hPa 2.0 l/m 0.0 km/h (0 Bft) N 0.00 h 0 W/m 11.3 C 12.1 C
13.05.2006 04:00 12.0 C 97 % 1020.0 hPa 0.0 l/m 0.0 km/h (0 Bft) N 0.00 h 0 W/m 11.5 C 12.0 C
13.05.2006 05:00 12.0 C 98 % 1020.0 hPa 0.3 l/m 0.0 km/h (0 Bft) N 0.00 h 0 W/m 11.7 C 12.0 C
13.05.2006 06:00 12.0 C 98 % 1020.3 hPa 0.0 l/m 0.0 km/h (0 Bft) N 0.00 h 8 W/m 11.7 C 12.0 C
13.05.2006 07:00 12.3 C 98 % 1021.0 hPa 0.0 l/m 0.0 km/h (0 Bft) N 0.00 h 26 W/m 12.0 C 12.3 C
13.05.2006 08:00 13.0 C 98 % 1020.9 hPa 0.0 l/m 0.0 km/h (0 Bft) N 0.23 h 177 W/m 12.6 C 13.0 C
13.05.2006 09:00 14.6 C 85 % 1020.4 hPa 0.0 l/m 0.4 km/h (0 Bft) W-NW 0.87 h 471 W/m 12.1 C 14.6 C
13.05.2006 10:00 15.9 C 70 % 1019.8 hPa 0.0 l/m 7.2 km/h (2 Bft) W-NW 0.73 h 565 W/m 10.4 C 15.9 C
13.05.2006 11:00 17.2 C 58 % 1019.3 hPa 0.0 l/m 5.5 km/h (1 Bft) NW 0.63 h 602 W/m 9.0 C 17.2 C
13.05.2006 12:00 18.6 C 57 % 1019.1 hPa 0.0 l/m 0.1 km/h (0 Bft) N 0.63 h 465 W/m 9.9 C 18.6 C
13.05.2006 13:00 19.0 C 57 % 1018.5 hPa 0.0 l/m 0.4 km/h (0 Bft) NW 0.22 h 429 W/m 10.3 C 19.0 C
13.05.2006 14:00 19.5 C 54 % 1018.0 hPa 0.0 l/m 1.1 km/h (1 Bft) W-NW 0.70 h 487 W/m 10.0 C 19.5 C
13.05.2006 15:00 20.6 C 49 % 1016.9 hPa 0.0 l/m 1.6 km/h (1 Bft) NW 0.97 h 653 W/m 9.3 C 20.6 C
13.05.2006 16:00 22.3 C 43 % 1016.0 hPa 0.0 l/m 1.2 km/h (1 Bft) W 0.90 h 600 W/m 9.0 C 22.3 C
13.05.2006 17:00 22.7 C 41 % 1015.0 hPa 0.0 l/m 0.5 km/h (0 Bft) W 0.92 h 493 W/m 8.8 C 22.7 C
13.05.2006 18:00 20.3 C 49 % 1014.8 hPa 0.0 l/m 3.4 km/h (1 Bft) NW 0.05 h 80 W/m 9.3 C 20.3 C
13.05.2006 19:00 14.4 C 73 % 1016.8 hPa 1.3 l/m 38.8 km/h (5 Bft) W-NW 0.00 h 8 W/m 9.5 C 14.4 C
13.05.2006 20:00 12.3 C 92 % 1018.9 hPa 1.3 l/m 0.5 km/h (0 Bft) NW 0.00 h 5 W/m 11.0 C 12.3 C
13.05.2006 21:00 11.9 C 96 % 1019.9 hPa 0.7 l/m 0.2 km/h (0 Bft) N 0.00 h 0 W/m 11.3 C 11.9 C
13.05.2006 22:00 11.9 C 96 % 1020.0 hPa 1.6 l/m 0.7 km/h (0 Bft) W-SW 0.00 h 0 W/m 11.3 C 11.9 C
13.05.2006 23:00 11.7 C 95 % 1020.2 hPa 1.6 l/m 4.3 km/h (1 Bft) W-NW 0.00 h 0 W/m 11.0 C 11.7 C
14.05.2006 00:00 11.5 C 95 % 1021.1 hPa 1.0 l/m 3.7 km/h (1 Bft) W-NW 0.00 h 0 W/m 10.7 C 11.5 C
14.05.2006 01:00 11.4 C 98 % 1021.1 hPa 1.3 l/m 0.3 km/h (0 Bft) W-NW 0.00 h 0 W/m 11.0 C 11.4 C
14.05.2006 02:00 11.2 C 97 % 1021.3 hPa 2.0 l/m 1.3 km/h (1 Bft) W 0.00 h 0 W/m 10.7 C 11.2 C
14.05.2006 03:00 11.2 C 97 % 1022.2 hPa 0.0 l/m 4.0 km/h (1 Bft) W-NW 0.00 h 0 W/m 10.7 C 11.2 C
14.05.2006 04:00 11.2 C 95 % 1022.2 hPa 0.0 l/m 2.8 km/h (1 Bft) W-NW 0.00 h 0 W/m 10.4 C 11.2 C
14.05.2006 05:00 11.3 C 92 % 1022.2 hPa 0.0 l/m 2.1 km/h (1 Bft) W-NW 0.00 h 2 W/m 10.0 C 11.3 C
14.05.2006 06:00 11.1 C 93 % 1022.3 hPa 0.0 l/m 0.1 km/h (0 Bft) N 0.00 h 15 W/m 10.0 C 11.1 C
14.05.2006 07:00 11.6 C 94 % 1023.2 hPa 0.0 l/m 0.2 km/h (0 Bft) S 0.27 h 118 W/m 10.6 C 11.6 C
14.05.2006 08:00 12.6 C 87 % 1023.1 hPa 0.0 l/m 3.2 km/h (1 Bft) NW 0.43 h 263 W/m 10.4 C 12.6 C
14.05.2006 09:00 13.5 C 79 % 1022.9 hPa 0.0 l/m 2.9 km/h (1 Bft) W-NW 0.43 h 343 W/m 9.8 C 13.5 C
14.05.2006 10:00 14.2 C 73 % 1022.8 hPa 0.0 l/m 7.9 km/h (2 Bft) NW 0.42 h 354 W/m 9.4 C 14.2 C
14.05.2006 11:00 15.8 C 65 % 1022.6 hPa 0.0 l/m 10.5 km/h (2 Bft) NW 0.87 h 762 W/m 9.2 C 15.8 C
14.05.2006 12:00 17.4 C 57 % 1022.4 hPa 0.0 l/m 7.9 km/h (2 Bft) NW 0.75 h 704 W/m 8.8 C 17.4 C
14.05.2006 13:00 18.1 C 54 % 1022.3 hPa 0.0 l/m 5.2 km/h (1 Bft) NW 0.63 h 699 W/m 8.6 C 18.1 C
14.05.2006 14:00 19.3 C 49 % 1021.1 hPa 0.0 l/m 1.5 km/h (1 Bft) NW 0.78 h 757 W/m 8.2 C 19.3 C
14.05.2006 15:00 20.6 C 42 % 1020.5 hPa 0.0 l/m 4.5 km/h (1 Bft) NW 0.93 h 686 W/m 7.3 C 20.6 C
14.05.2006 16:00 21.9 C 39 % 1019.8 hPa 0.0 l/m 2.0 km/h (1 Bft) NW 0.93 h 638 W/m 7.1 C 21.9 C
14.05.2006 17:00 22.1 C 36 % 1019.5 hPa 0.0 l/m 3.4 km/h (1 Bft) W-NW 1.00 h 501 W/m 6.1 C 22.1 C
14.05.2006 18:00 21.6 C 37 % 1018.8 hPa 0.0 l/m 1.1 km/h (0 Bft) W-NW 1.00 h 364 W/m 6.1 C 21.6 C
14.05.2006 19:00 20.0 C 42 % 1019.0 hPa 0.0 l/m 0.1 km/h (0 Bft) N 1.00 h 201 W/m 6.6 C 20.0 C
14.05.2006 20:00 17.7 C 53 % 1019.3 hPa 0.0 l/m 0.0 km/h (0 Bft) N 0.47 h 50 W/m 7.9 C 17.7 C
14.05.2006 21:00 14.4 C 71 % 1020.6 hPa 0.0 l/m 2.5 km/h (1 Bft) O-SO 0.00 h 0 W/m 9.1 C 14.4 C
14.05.2006 22:00 12.7 C 81 % 1021.0 hPa 0.0 l/m 0.5 km/h (0 Bft) O-SO 0.00 h 0 W/m 9.4 C 12.7 C
14.05.2006 23:00 11.7 C 87 % 1021.1 hPa 0.0 l/m 0.2 km/h (0 Bft) O-SO 0.00 h 0 W/m 9.6 C 11.7 C
Min-Datum _ 10.05.06 11.05.06 08.05.06 - 08.05.06 - - - 11.05.06 09.05.06
_ Min-Zeit 06:13 17:54 18:19 - 00:02 - - - 17:58 05:35
Minimum _ 4.9 C 20 % 1010.2 hPa - 0.0 km/h (0 Bft) - - - -1.8 C 2.1 C
Max-Datum _ 12.05.06 10.05.06 14.05.06 08.05.06 13.05.06 - 11.05.06 10.05.06 13.05.06 12.05.06
_ Max-Zeit 16:47 05:33 06:57 11:08 19:25 - 09:32 13:19 08:29 16:47
Maximum _ 25.6 C 100 % 1023.3 hPa 2.3 l/m 69.8 km/h
W-NW (8 Bft)
- 0.05 h 1006 W/m 13.0 C 25.6 C
Durchschnitt _ 12.9 C 76 % 1017.2 hPa #27.7 l/m 3.8 km/h (1 Bft) NW #45:00 h 307 W/m 7.8 C 12.8 C
© Kaiko 2006